Time;durP1;ratioP1;P1;durP2;ratioP2;P2;SDS_P1;SDS_P2;PMS_P1;PMS_P2;Temp;Humidity;BMP_temperature;BMP_pressure;BME280_temperature;BME280_humidity;BME280_pressure;Samples;Min_cycle;Max_cycle;Signal;HPM_P1;HPM_P2
2024/01/06 01:09:53;;;;;;;60.97;35.05;;;10.40;99.90;;;;;;4661466;30;20108;-81
2024/01/06 01:12:29;;;;;;;67.50;39.05;;;10.20;99.90;;;;;;4739211;30;20059;-82
2024/01/06 01:15:03;;;;;;;70.70;40.83;;;10.10;1.00;;;;;;4773975;30;20059;-83
2024/01/06 01:17:46;;;;;;;62.33;35.72;;;10.10;1.00;;;;;;4789733;30;20470;-82
2024/01/06 01:20:37;;;;;;;57.33;31.27;;;10.00;1.00;;;;;;4802852;29;20051;-81
2024/01/06 01:23:16;;;;;;;46.67;25.42;;;10.00;1.00;;;;;;4809141;29;20043;-80
2024/01/06 01:25:48;;;;;;;41.60;23.23;;;10.00;99.90;;;;;;4804944;30;20075;-80
2024/01/06 01:28:16;;;;;;;41.65;20.40;;;9.90;99.90;;;;;;4788612;30;20055;-81
2024/01/06 01:30:44;;;;;;;45.80;22.48;;;9.80;56.90;;;;;;4792337;29;20327;-81
2024/01/06 01:33:24;;;;;;;46.10;23.65;;;9.70;99.90;;;;;;4810830;29;20050;-81
2024/01/06 01:35:53;;;;;;;31.85;18.92;;;9.70;1.00;;;;;;4795813;29;20055;-82
2024/01/06 01:38:21;;;;;;;31.02;16.48;;;9.80;1.00;;;;;;4795236;29;20058;-79
2024/01/06 01:40:50;;;;;;;35.58;18.63;;;9.80;1.00;;;;;;4827960;29;20058;-82
2024/01/06 01:43:57;;;;;;;52.08;29.92;;;9.70;1.00;;;;;;4919530;29;20063;-81
2024/01/06 01:46:29;;;;;;;74.43;37.80;;;9.60;35.60;;;;;;4903719;29;20087;-82
2024/01/06 01:48:59;;;;;;;70.47;38.80;;;9.60;99.90;;;;;;4919892;29;20075;-81
2024/01/06 01:51:30;;;;;;;47.28;25.48;;;9.60;99.90;;;;;;4919525;29;20049;-82
2024/01/06 01:54:02;;;;;;;58.55;30.90;;;9.50;99.90;;;;;;4917335;29;20055;-81
2024/01/06 01:56:34;;;;;;;48.90;27.77;;;9.40;1.00;;;;;;4918417;29;20085;-82
2024/01/06 01:59:07;;;;;;;35.17;18.90;;;9.40;1.00;;;;;;4911370;29;20452;-80
2024/01/06 02:01:35;;;;;;;40.30;21.70;;;9.30;1.00;;;;;;4894702;29;20079;-81
2024/01/06 02:04:03;;;;;;;32.08;16.10;;;9.40;1.00;;;;;;4897207;29;20862;-81
2024/01/06 02:06:34;;;;;;;29.83;17.38;;;9.30;1.00;;;;;;4883722;29;20060;-81
2024/01/06 02:09:02;;;;;;;31.58;17.17;;;9.30;1.00;;;;;;4893890;29;20048;-81
2024/01/06 02:11:31;;;;;;;31.23;17.75;;;9.20;25.50;;;;;;4897083;29;20472;-81
2024/01/06 02:14:00;;;;;;;27.85;16.80;;;9.10;99.90;;;;;;4897799;29;20614;-80
2024/01/06 02:16:29;;;;;;;30.73;16.73;;;9.10;1.00;;;;;;4897749;29;20048;-80
2024/01/06 02:18:58;;;;;;;36.00;19.90;;;9.20;1.00;;;;;;4896491;29;20051;-80
2024/01/06 02:21:29;;;;;;;38.83;20.58;;;9.20;99.90;;;;;;4896812;29;20104;-80
2024/01/06 02:23:58;;;;;;;46.75;26.10;;;9.20;99.90;;;;;;4897069;29;20136;-80
2024/01/06 02:26:26;;;;;;;35.67;21.55;;;9.20;1.00;;;;;;4895970;29;20413;-80
2024/01/06 02:28:53;;;;;;;40.67;24.90;;;9.10;1.00;;;;;;4897194;29;20131;-80
2024/01/06 02:31:21;;;;;;;43.67;27.17;;;9.10;77.50;;;;;;4898495;29;20052;-80
2024/01/06 02:33:51;;;;;;;41.47;24.45;;;9.00;99.90;;;;;;4910273;29;20048;-81
2024/01/06 02:36:23;;;;;;;31.45;18.90;;;9.10;1.00;;;;;;4917863;29;20067;-80
2024/01/06 02:38:51;;;;;;;37.65;23.83;;;9.10;1.00;;;;;;4917948;29;20097;-82
2024/01/06 02:45:50;;;;;;;39.88;22.25;;;9.10;40.50;;;;;;4908435;29;20028;-81
2024/01/06 02:49:25;;;;;;;45.10;24.77;;;9.20;99.90;;;;;;4914519;29;20122;-81
2024/01/06 02:56:30;;;;;;;;;;;;;;;;;;;;;
2024/01/06 03:00:18;;;;;;;33.22;16.42;;;9.20;99.90;;;;;;4842480;29;20050;-83
2024/01/06 03:43:42;;;;;;;23.60;12.88;;;9.90;1.00;;;;;;4767994;29;20063;-82
2024/01/06 03:46:10;;;;;;;22.05;12.38;;;9.90;1.00;;;;;;4795765;29;20540;-81
2024/01/06 03:52:24;;;;;;;27.67;15.88;;;10.10;99.90;;;;;;4826638;29;20080;-80
2024/01/06 03:54:54;;;;;;;23.00;14.23;;;10.00;99.90;;;;;;4815225;29;20081;-80
2024/01/06 03:57:23;;;;;;;23.90;13.77;;;9.80;99.90;;;;;;4823324;29;20154;-79
2024/01/06 03:59:52;;;;;;;33.08;17.65;;;9.80;95.90;;;;;;4845000;29;20057;-79
2024/01/06 04:02:20;;;;;;;26.30;12.80;;;9.70;1.00;;;;;;4870290;29;20038;-80
2024/01/06 04:04:50;;;;;;;25.10;15.13;;;9.80;99.90;;;;;;4883045;29;20034;-79
2024/01/06 04:07:20;;;;;;;28.85;17.58;;;9.80;99.90;;;;;;4882868;29;20029;-82
2024/01/06 04:10:09;;;;;;;32.35;18.02;;;9.70;99.90;;;;;;4877377;29;20036;-82
2024/01/06 04:13:04;;;;;;;42.88;24.02;;;9.60;99.90;;;;;;4895848;29;20032;-82
2024/01/06 04:19:47;;;;;;;44.30;25.20;;;9.50;99.90;;;;;;4922175;29;20145;-81
2024/01/06 04:34:59;;;;;;;57.35;34.42;;;9.50;1.00;;;;;;4817439;29;20525;-83
2024/01/06 04:37:45;;;;;;;59.20;35.00;;;9.40;1.00;;;;;;4821024;29;20054;-82
2024/01/06 04:40:14;;;;;;;59.38;33.00;;;9.50;1.00;;;;;;4808240;29;20050;-81
2024/01/06 04:42:44;;;;;;;72.10;37.35;;;9.50;99.90;;;;;;4806583;29;20046;-82
2024/01/06 04:45:13;;;;;;;57.47;32.67;;;9.50;1.00;;;;;;4809402;29;20078;-81
2024/01/06 04:47:42;;;;;;;48.50;28.00;;;9.50;1.00;;;;;;4811977;29;20058;-82
2024/01/06 04:50:10;;;;;;;50.95;28.63;;;9.50;1.00;;;;;;4822658;29;20081;-81
2024/01/06 04:52:42;;;;;;;50.33;29.88;;;9.40;1.00;;;;;;4830367;29;20069;-81
2024/01/06 04:55:10;;;;;;;47.75;27.30;;;9.50;1.00;;;;;;4830924;29;20110;-80
2024/01/06 04:57:38;;;;;;;41.88;26.38;;;9.50;99.90;;;;;;4845295;29;20563;-80
2024/01/06 05:00:16;;;;;;;39.78;23.60;;;9.50;99.90;;;;;;4828411;29;20105;-81
2024/01/06 05:02:56;;;;;;;42.13;24.23;;;9.50;99.90;;;;;;4829983;29;20152;-81
2024/01/06 05:09:26;;;;;;;43.00;25.83;;;9.50;1.00;;;;;;4879702;29;20052;-82
2024/01/06 05:12:01;;;;;;;42.58;25.30;;;9.50;60.40;;;;;;4921374;29;20040;-83
2024/01/06 05:14:31;;;;;;;37.88;22.10;;;9.50;99.90;;;;;;4936260;29;20485;-81
2024/01/06 05:17:00;;;;;;;37.13;21.85;;;9.50;99.90;;;;;;4886746;29;20559;-81
2024/01/06 05:19:28;;;;;;;38.33;22.50;;;9.60;99.90;;;;;;4887533;29;20052;-81
2024/01/06 05:21:59;;;;;;;48.17;26.13;;;9.60;1.00;;;;;;4903025;29;20132;-82
2024/01/06 05:24:27;;;;;;;31.25;17.95;;;9.60;99.90;;;;;;4924131;29;20492;-82
2024/01/06 05:26:58;;;;;;;34.80;18.80;;;9.60;1.00;;;;;;4920722;29;20139;-84
2024/01/06 05:29:27;;;;;;;59.38;28.60;;;9.80;1.00;;;;;;4918012;29;20071;-82
2024/01/06 05:31:55;;;;;;;68.43;39.38;;;9.90;99.90;;;;;;4917637;29;20045;-80
2024/01/06 05:34:23;;;;;;;72.80;37.63;;;9.90;1.00;;;;;;4918526;29;20659;-81
2024/01/06 05:36:54;;;;;;;60.20;33.20;;;9.70;1.00;;;;;;4900259;29;20560;-82
2024/01/06 05:39:22;;;;;;;68.20;36.17;;;9.60;1.00;;;;;;4902616;29;20048;-81
2024/01/06 05:41:54;;;;;;;67.22;37.40;;;9.70;99.90;;;;;;4919691;29;20046;-82
2024/01/06 05:44:22;;;;;;;56.72;33.40;;;9.70;99.90;;;;;;4898134;29;20076;-80
2024/01/06 05:46:53;;;;;;;60.47;31.75;;;9.70;99.90;;;;;;4903681;29;20056;-81
2024/01/06 05:49:21;;;;;;;51.53;29.77;;;9.80;1.00;;;;;;4923009;29;20457;-80
2024/01/06 05:51:52;;;;;;;43.67;24.88;;;9.80;99.90;;;;;;4906030;29;20051;-80
2024/01/06 05:54:21;;;;;;;48.38;28.92;;;9.80;99.90;;;;;;4920287;29;20139;-80
2024/01/06 05:56:49;;;;;;;66.72;37.55;;;9.80;1.00;;;;;;4917348;29;20056;-80
2024/01/06 05:59:21;;;;;;;54.70;33.17;;;9.70;99.90;;;;;;4916010;29;20068;-79
2024/01/06 06:01:50;;;;;;;53.55;31.75;;;9.70;99.90;;;;;;4899526;29;20048;-82
2024/01/06 06:04:20;;;;;;;50.85;29.88;;;9.60;1.00;;;;;;4915382;29;20052;-81
2024/01/06 06:06:49;;;;;;;62.88;32.13;;;9.60;1.00;;;;;;4912293;29;20048;-82
2024/01/06 06:09:18;;;;;;;49.67;27.40;;;9.70;1.00;;;;;;4920934;29;20151;-81
2024/01/06 06:11:48;;;;;;;46.85;28.48;;;9.70;1.00;;;;;;4932526;29;20040;-80
2024/01/06 06:14:16;;;;;;;43.15;26.58;;;9.80;99.90;;;;;;4914328;29;20519;-80
2024/01/06 06:16:55;;;;;;;46.05;29.52;;;9.80;99.90;;;;;;4902980;29;20107;-82
2024/01/06 06:19:22;;;;;;;61.22;38.35;;;10.00;1.00;;;;;;4922237;29;20044;-81
2024/01/06 06:22:06;;;;;;;51.45;32.40;;;9.90;99.90;;;;;;4935231;29;20073;-82
2024/01/06 06:24:40;;;;;;;65.15;38.60;;;9.80;99.90;;;;;;4918020;29;20115;-81
2024/01/06 06:27:13;;;;;;;62.55;38.47;;;9.80;1.00;;;;;;4916228;29;20043;-81
2024/01/06 06:29:52;;;;;;;59.15;38.78;;;9.70;1.00;;;;;;4923667;29;20040;-81
2024/01/06 06:32:42;;;;;;;49.28;29.65;;;9.80;99.90;;;;;;4920756;29;20028;-81
2024/01/06 06:36:10;;;;;;;40.47;26.00;;;9.90;1.00;;;;;;4921503;29;20033;-81
2024/01/06 06:38:46;;;;;;;48.92;30.13;;;10.30;45.10;;;;;;4867461;29;20072;-79
2024/01/06 06:41:19;;;;;;;64.65;37.75;;;10.40;99.90;;;;;;4914359;29;20060;-82
2024/01/06 06:43:57;;;;;;;77.13;45.45;;;10.40;1.00;;;;;;4921151;29;20044;-80
2024/01/06 06:46:42;;;;;;;82.38;46.83;;;10.50;1.00;;;;;;4919055;29;20075;-81
2024/01/06 06:49:53;;;;;;;87.00;50.50;;;10.40;1.00;;;;;;4918479;29;20040;-82
2024/01/06 06:56:27;;;;;;;65.78;37.65;;;10.30;99.90;;;;;;4839841;29;20095;-81
2024/01/06 06:59:38;;;;;;;66.55;38.63;;;10.50;99.90;;;;;;4922832;29;20060;-80
2024/01/06 07:02:45;;;;;;;87.97;44.00;;;10.90;1.00;;;;;;4922081;29;20044;-82
2024/01/06 07:05:26;;;;;;;91.45;52.58;;;11.30;1.00;;;;;;4923983;29;20048;-81
2024/01/06 07:07:55;;;;;;;61.22;36.17;;;11.60;99.90;;;;;;4888320;29;20460;-81
2024/01/06 07:10:37;;;;;;;64.63;36.75;;;11.80;1.00;;;;;;4901390;29;20067;-82
2024/01/06 07:13:24;;;;;;;54.10;31.92;;;12.00;1.00;;;;;;4906859;29;20111;-81
2024/01/06 07:15:59;;;;;;;79.65;44.75;;;12.00;1.00;;;;;;4903296;29;20048;-82
2024/01/06 09:38:13;;;;;;;11.73;7.22;;;15.70;1.00;;;;;;5236326;23;20183;-77
2024/01/06 09:40:45;;;;;;;9.70;5.03;;;15.60;1.00;;;;;;4928788;29;20114;-76
2024/01/06 09:43:23;;;;;;;11.50;6.07;;;15.60;1.00;;;;;;4924480;29;20076;-78
2024/01/06 09:46:03;;;;;;;16.10;5.75;;;15.50;1.00;;;;;;4946281;29;20064;-76
2024/01/06 09:48:49;;;;;;;17.35;9.57;;;15.50;1.00;;;;;;4928144;29;20138;-78
2024/01/06 09:51:18;;;;;;;21.95;6.53;;;15.40;1.00;;;;;;4950952;29;20054;-76
2024/01/06 09:53:54;;;;;;;35.47;9.23;;;15.40;1.00;;;;;;4947033;29;20044;-77
2024/01/06 09:56:25;;;;;;;15.73;6.18;;;15.40;1.00;;;;;;4938133;29;20046;-76
2024/01/06 09:58:52;;;;;;;19.88;7.78;;;15.50;1.00;;;;;;4909033;23;20049;-80
2024/01/06 10:01:20;;;;;;;11.35;5.95;;;15.50;1.00;;;;;;4872833;29;20071;-77
2024/01/06 10:03:48;;;;;;;15.30;6.40;;;15.60;1.00;;;;;;4874944;29;20056;-79
2024/01/06 10:06:16;;;;;;;13.57;6.28;;;15.60;1.00;;;;;;4875673;29;20462;-79
2024/01/06 10:08:44;;;;;;;10.20;5.68;;;15.70;1.00;;;;;;4874836;29;20143;-78
2024/01/06 10:11:14;;;;;;;11.80;6.00;;;15.80;1.00;;;;;;4876859;29;20048;-77
2024/01/06 10:13:41;;;;;;;9.68;5.65;;;15.90;1.00;;;;;;4875270;29;20072;-78
2024/01/06 10:16:10;;;;;;;10.98;5.30;;;15.90;1.00;;;;;;4876148;29;20608;-78
2024/01/06 10:18:38;;;;;;;13.82;7.47;;;16.00;1.00;;;;;;4876802;29;20070;-79
2024/01/06 10:21:06;;;;;;;14.25;5.40;;;16.10;1.00;;;;;;4875875;29;20048;-79
2024/01/06 10:23:34;;;;;;;11.85;5.32;;;16.20;1.00;;;;;;4876289;29;20041;-78
2024/01/06 10:26:02;;;;;;;7.90;4.38;;;16.30;1.00;;;;;;4874968;29;20041;-77
2024/01/06 10:28:32;;;;;;;11.05;4.85;;;16.30;1.00;;;;;;4874390;29;20121;-78
2024/01/06 10:30:59;;;;;;;6.80;4.28;;;16.40;1.00;;;;;;4877352;29;20043;-79
2024/01/06 10:33:27;;;;;;;14.25;5.13;;;16.40;1.00;;;;;;4875764;29;20045;-80
2024/01/06 10:35:56;;;;;;;12.02;6.32;;;16.30;1.00;;;;;;4882942;29;20033;-78
2024/01/06 10:38:25;;;;;;;10.45;6.25;;;16.40;1.00;;;;;;4886929;29;20074;-80
2024/01/06 10:40:59;;;;;;;12.23;7.07;;;16.50;1.00;;;;;;4881021;29;20136;-78
2024/01/06 10:43:28;;;;;;;12.65;6.40;;;16.50;1.00;;;;;;4876411;29;20236;-79
2024/01/06 10:46:00;;;;;;;9.68;5.18;;;16.60;1.00;;;;;;4877280;29;20033;-78
2024/01/06 10:48:29;;;;;;;9.82;5.10;;;16.60;1.00;;;;;;4875162;29;20059;-77
2024/01/06 10:50:57;;;;;;;9.43;4.72;;;16.60;1.00;;;;;;4876009;29;20128;-78
2024/01/06 10:53:27;;;;;;;8.65;4.80;;;16.70;1.00;;;;;;4875052;29;20041;-79
2024/01/06 10:55:55;;;;;;;10.63;6.22;;;16.70;1.00;;;;;;4875539;29;20516;-77
2024/01/06 10:58:23;;;;;;;9.38;4.50;;;16.70;1.00;;;;;;4874502;29;20491;-79
2024/01/06 11:00:51;;;;;;;10.15;4.72;;;16.80;1.00;;;;;;4874690;29;20041;-79
2024/01/06 11:03:21;;;;;;;9.10;4.63;;;16.80;1.00;;;;;;4875183;29;20132;-79
2024/01/06 11:05:49;;;;;;;10.57;4.72;;;16.80;1.00;;;;;;4873706;29;20132;-80
2024/01/06 11:08:49;;;;;;;9.40;4.93;;;16.90;1.00;;;;;;4878015;29;20509;-89
2024/01/06 11:11:21;;;;;;;8.68;4.47;;;17.00;1.00;;;;;;4878234;29;20701;-82
2024/01/06 11:13:51;;;;;;;10.38;4.47;;;17.00;1.00;;;;;;4878501;29;20056;-77
2024/01/06 11:16:36;;;;;;;8.88;5.35;;;16.90;1.00;;;;;;4876804;29;20062;-79
2024/01/06 11:19:45;;;;;;;10.07;4.80;;;17.00;1.00;;;;;;4875262;29;20108;-79
2024/01/06 11:22:24;;;;;;;10.23;4.68;;;16.90;1.00;;;;;;4875587;29;20045;-77
2024/01/06 11:24:53;;;;;;;6.57;3.17;;;16.90;1.00;;;;;;4875127;29;20052;-78
2024/01/06 11:27:22;;;;;;;10.77;3.85;;;16.80;1.00;;;;;;4873039;29;20131;-79
2024/01/06 11:29:51;;;;;;;8.77;3.28;;;16.80;1.00;;;;;;4875947;29;20045;-79
2024/01/06 11:32:27;;;;;;;6.53;2.40;;;16.70;1.00;;;;;;4875068;29;20044;-79
2024/01/06 11:34:58;;;;;;;5.35;2.25;;;16.70;1.00;;;;;;4873129;29;20057;-77
2024/01/06 11:37:27;;;;;;;10.40;5.40;;;16.60;1.00;;;;;;4872808;29;20049;-79
2024/01/06 11:39:54;;;;;;;9.57;5.38;;;16.60;1.00;;;;;;4874165;29;20083;-78
2024/01/06 11:42:22;;;;;;;6.72;3.00;;;16.60;1.00;;;;;;4874571;29;20150;-79
2024/01/06 11:44:52;;;;;;;4.63;2.10;;;16.60;1.00;;;;;;4875536;29;20114;-78
2024/01/06 11:47:23;;;;;;;5.25;2.63;;;16.50;1.00;;;;;;4875780;29;20060;-79
2024/01/06 11:49:57;;;;;;;7.65;3.75;;;16.50;1.00;;;;;;4862712;29;20072;-78
2024/01/06 11:52:25;;;;;;;6.50;3.10;;;16.60;1.00;;;;;;4886376;29;20079;-78
2024/01/06 11:54:55;;;;;;;4.80;2.45;;;16.50;1.00;;;;;;4886682;29;20049;-77
2024/01/06 11:57:22;;;;;;;5.07;2.38;;;16.50;1.00;;;;;;4881342;29;20117;-79
2024/01/06 11:59:51;;;;;;;4.57;2.17;;;16.50;1.00;;;;;;4887998;29;20076;-81
2024/01/06 12:02:19;;;;;;;6.55;3.25;;;16.50;1.00;;;;;;4885054;29;20087;-78
2024/01/06 12:04:50;;;;;;;5.10;2.50;;;16.50;1.00;;;;;;4883176;29;20048;-80
2024/01/06 12:07:22;;;;;;;5.40;2.15;;;16.50;1.00;;;;;;4882830;29;20049;-80
2024/01/06 12:09:49;;;;;;;4.85;2.03;;;16.50;1.00;;;;;;4883424;29;20045;-80
2024/01/06 12:12:19;;;;;;;4.55;2.40;;;16.50;1.00;;;;;;4882619;29;20048;-78
2024/01/06 12:14:46;;;;;;;5.88;2.00;;;16.50;1.00;;;;;;4878528;29;20076;-79
2024/01/06 12:17:15;;;;;;;5.22;2.35;;;16.50;1.00;;;;;;4878055;29;20122;-78
2024/01/06 12:19:43;;;;;;;5.07;2.40;;;16.40;1.00;;;;;;4877871;29;20044;-79
2024/01/06 12:22:13;;;;;;;8.23;3.03;;;16.40;1.00;;;;;;4877306;29;20049;-79
2024/01/06 12:24:43;;;;;;;6.35;3.15;;;16.40;1.00;;;;;;4877857;29;20068;-79
2024/01/06 12:27:11;;;;;;;5.97;3.17;;;16.40;1.00;;;;;;4877589;29;20128;-79
2024/01/06 12:29:41;;;;;;;6.25;3.38;;;16.40;1.00;;;;;;4877549;29;20045;-79
2024/01/06 12:32:09;;;;;;;6.15;2.78;;;16.40;1.00;;;;;;4877124;29;20049;-78
2024/01/06 12:34:37;;;;;;;7.57;3.25;;;16.50;1.00;;;;;;4885156;29;20049;-78
2024/01/06 12:37:05;;;;;;;5.47;2.42;;;16.50;1.00;;;;;;4878485;29;20037;-79
2024/01/06 12:39:32;;;;;;;5.78;2.60;;;16.50;1.00;;;;;;4878736;29;20045;-79
2024/01/06 12:42:02;;;;;;;7.03;3.08;;;16.50;1.00;;;;;;4877576;29;20077;-77
2024/01/06 12:44:32;;;;;;;8.23;4.38;;;16.50;1.00;;;;;;4876248;29;20160;-79
2024/01/06 12:46:59;;;;;;;7.05;3.78;;;16.50;1.00;;;;;;4877385;29;20120;-79
2024/01/06 12:49:27;;;;;;;7.25;3.78;;;16.50;1.00;;;;;;4877529;29;20045;-78
2024/01/06 12:51:54;;;;;;;7.85;4.10;;;16.60;1.00;;;;;;4877620;29;20090;-79
2024/01/06 12:54:22;;;;;;;8.65;3.75;;;16.60;1.00;;;;;;4876055;29;20064;-80
2024/01/06 12:56:49;;;;;;;9.60;3.97;;;16.50;1.00;;;;;;4874978;29;20056;-78
2024/01/06 12:59:18;;;;;;;8.50;2.90;;;16.50;1.00;;;;;;4883956;29;20053;-78
2024/01/06 13:01:46;;;;;;;7.97;3.40;;;16.50;1.00;;;;;;4878061;29;20053;-80
2024/01/06 13:04:13;;;;;;;9.20;4.28;;;16.40;1.00;;;;;;4878310;29;20101;-79
2024/01/06 13:06:42;;;;;;;7.68;3.83;;;16.50;1.00;;;;;;4878337;29;20409;-78
2024/01/06 13:09:12;;;;;;;8.32;3.95;;;16.50;1.00;;;;;;4876464;29;20049;-79
2024/01/06 13:11:40;;;;;;;11.43;5.82;;;16.50;1.00;;;;;;4877194;29;20458;-77
2024/01/06 13:14:07;;;;;;;9.63;4.20;;;16.50;1.00;;;;;;4876782;29;20064;-76
2024/01/06 13:16:36;;;;;;;11.15;5.20;;;16.40;1.00;;;;;;4876449;29;20135;-78
2024/01/06 13:19:04;;;;;;;10.32;5.80;;;16.40;1.00;;;;;;4876693;29;20049;-79
2024/01/06 13:21:31;;;;;;;13.57;6.53;;;16.40;1.00;;;;;;4874737;29;20057;-79
2024/01/06 13:24:02;;;;;;;7.35;3.70;;;16.40;1.00;;;;;;4876703;29;20561;-78
2024/01/06 13:26:29;;;;;;;9.80;4.93;;;16.40;1.00;;;;;;4876393;29;20037;-80
2024/01/06 13:28:57;;;;;;;13.63;5.68;;;16.40;1.00;;;;;;4876393;29;20443;-78
2024/01/06 13:31:24;;;;;;;14.88;5.70;;;16.40;1.00;;;;;;4876653;29;20049;-79
2024/01/06 13:33:53;;;;;;;13.65;6.53;;;16.30;1.00;;;;;;4889266;29;20045;-79
2024/01/06 13:36:21;;;;;;;13.68;6.95;;;16.30;1.00;;;;;;4875909;29;20545;-78
2024/01/06 13:38:49;;;;;;;12.57;7.97;;;16.30;1.00;;;;;;4875753;29;20506;-79
2024/01/06 13:41:17;;;;;;;18.13;10.60;;;16.20;1.00;;;;;;4859410;29;20076;-79
2024/01/06 13:43:44;;;;;;;17.58;8.98;;;16.20;1.00;;;;;;4876435;29;20060;-79
2024/01/06 13:46:13;;;;;;;15.60;8.45;;;16.20;1.00;;;;;;4876614;29;20033;-78
2024/01/06 13:48:41;;;;;;;26.13;13.20;;;16.10;1.00;;;;;;4875021;29;20056;-78
2024/01/06 13:51:10;;;;;;;49.08;25.17;;;16.00;1.00;;;;;;4859352;29;20053;-79
2024/01/06 13:53:38;;;;;;;48.95;26.48;;;16.00;1.00;;;;;;4876327;29;20041;-79
2024/01/06 13:56:07;;;;;;;38.40;21.60;;;16.00;1.00;;;;;;4876028;29;20055;-78
2024/01/06 13:58:35;;;;;;;38.58;20.50;;;16.00;1.00;;;;;;4880329;29;20052;-78
2024/01/06 14:01:03;;;;;;;41.17;22.85;;;16.00;1.00;;;;;;4894588;29;20452;-79
2024/01/06 14:03:30;;;;;;;35.13;20.20;;;16.00;1.00;;;;;;4895908;29;20043;-79
2024/01/06 14:05:58;;;;;;;41.13;22.55;;;16.10;1.00;;;;;;4878130;29;20070;-79
2024/01/06 14:08:27;;;;;;;37.55;20.73;;;16.20;1.00;;;;;;4893366;29;20053;-78
2024/01/06 14:10:54;;;;;;;34.15;18.23;;;16.20;1.00;;;;;;4893330;29;20041;-78
2024/01/06 14:13:22;;;;;;;35.25;19.60;;;16.20;1.00;;;;;;4895049;29;20046;-78
2024/01/06 14:15:49;;;;;;;42.33;23.63;;;16.30;1.00;;;;;;4877400;29;20048;-78
2024/01/06 14:18:16;;;;;;;38.95;21.25;;;16.30;1.00;;;;;;4893457;29;20055;-80
2024/01/06 14:20:44;;;;;;;39.85;20.38;;;16.40;1.00;;;;;;4894558;29;20480;-77
2024/01/06 14:23:12;;;;;;;31.17;18.58;;;16.40;1.00;;;;;;4877809;29;20482;-78
2024/01/06 14:25:41;;;;;;;39.35;22.75;;;16.60;1.00;;;;;;4893848;29;20080;-77
2024/01/06 14:28:09;;;;;;;32.08;18.17;;;16.70;1.00;;;;;;4876094;29;20048;-79
2024/01/06 14:30:36;;;;;;;29.38;16.83;;;16.90;1.00;;;;;;4893860;29;20048;-77
2024/01/06 14:33:04;;;;;;;37.85;20.88;;;17.00;1.00;;;;;;4894125;29;20063;-78
2024/01/06 14:35:32;;;;;;;25.75;14.20;;;17.10;1.00;;;;;;4877810;29;20139;-78
2024/01/06 14:38:00;;;;;;;16.95;10.40;;;17.10;1.00;;;;;;4877155;29;20040;-78
2024/01/06 14:40:27;;;;;;;17.95;9.65;;;17.10;1.00;;;;;;4893672;29;20430;-78
2024/01/06 14:42:57;;;;;;;15.95;10.68;;;17.20;1.00;;;;;;4894112;29;20044;-79
2024/01/06 14:45:24;;;;;;;12.60;6.93;;;17.20;1.00;;;;;;4894214;29;20062;-78
2024/01/06 14:47:52;;;;;;;12.00;6.15;;;17.10;1.00;;;;;;4893873;29;20128;-78
2024/01/06 14:50:19;;;;;;;12.30;6.82;;;17.10;1.00;;;;;;4893870;29;20108;-79
2024/01/06 14:52:47;;;;;;;16.13;8.02;;;17.00;1.00;;;;;;4893972;29;20056;-79
2024/01/06 14:55:16;;;;;;;14.70;7.63;;;16.80;1.00;;;;;;4894494;29;20092;-78
2024/01/06 14:57:43;;;;;;;15.95;9.18;;;16.70;1.00;;;;;;4893667;29;20045;-77
2024/01/06 15:00:13;;;;;;;15.82;8.68;;;16.70;1.00;;;;;;4894354;29;20067;-77
2024/01/06 15:02:41;;;;;;;16.40;8.57;;;16.60;1.00;;;;;;4893025;29;20053;-80
2024/01/06 15:05:09;;;;;;;16.58;9.25;;;16.50;1.00;;;;;;4892823;29;20175;-80
2024/01/06 15:07:36;;;;;;;12.10;7.30;;;16.40;1.00;;;;;;4893191;29;20040;-77
2024/01/06 15:10:05;;;;;;;18.98;8.48;;;16.30;1.00;;;;;;4895502;29;20067;-77
2024/01/06 15:12:33;;;;;;;21.98;11.00;;;16.20;1.00;;;;;;4896061;29;20037;-78
2024/01/06 15:15:00;;;;;;;22.40;12.43;;;16.10;1.00;;;;;;4896353;29;20041;-79
2024/01/06 15:17:29;;;;;;;20.27;12.05;;;16.10;1.00;;;;;;4893499;29;20093;-79
2024/01/06 15:19:56;;;;;;;29.65;16.38;;;15.90;1.00;;;;;;4895257;29;20386;-77
2024/01/06 15:22:24;;;;;;;27.92;14.35;;;15.80;1.00;;;;;;4894577;29;20076;-78
2024/01/06 15:24:51;;;;;;;27.40;15.85;;;15.70;1.00;;;;;;4897428;29;20223;-79
2024/01/06 15:27:19;;;;;;;32.13;19.48;;;15.70;1.00;;;;;;4896997;29;20089;-79
2024/01/06 15:29:46;;;;;;;38.38;22.55;;;15.60;1.00;;;;;;4897329;29;20045;-78
2024/01/06 15:32:13;;;;;;;38.25;23.65;;;15.50;1.00;;;;;;4898039;29;20263;-79
2024/01/06 15:34:43;;;;;;;42.95;25.23;;;15.40;1.00;;;;;;4897740;29;20045;-78
2024/01/06 15:37:11;;;;;;;43.38;24.88;;;15.40;1.00;;;;;;4904375;29;20037;-80
2024/01/06 15:39:38;;;;;;;43.30;24.10;;;15.30;1.00;;;;;;4904504;29;20069;-77
2024/01/06 15:42:06;;;;;;;44.22;21.73;;;15.20;1.00;;;;;;4885121;29;20512;-79
2024/01/06 15:44:33;;;;;;;31.40;15.35;;;15.20;1.00;;;;;;4896924;29;20410;-78
2024/01/06 15:47:01;;;;;;;33.33;14.90;;;15.10;1.00;;;;;;4896863;29;20040;-78
2024/01/06 15:49:28;;;;;;;47.58;23.98;;;15.00;1.00;;;;;;4903697;29;20072;-76
2024/01/06 15:51:59;;;;;;;67.47;38.28;;;14.80;1.00;;;;;;4894949;29;20084;-77
2024/01/06 15:54:27;;;;;;;74.35;41.03;;;14.80;1.00;;;;;;4894703;29;20055;-77
2024/01/06 15:56:54;;;;;;;121.20;69.30;;;14.70;1.00;;;;;;4912672;29;20071;-79
2024/01/06 15:59:22;;;;;;;148.20;87.78;;;14.60;1.00;;;;;;4907633;29;20066;-79
2024/01/06 16:01:49;;;;;;;151.48;89.05;;;14.50;1.00;;;;;;4910636;29;20104;-78
2024/01/06 16:04:17;;;;;;;156.02;91.50;;;14.40;1.00;;;;;;4910564;29;20390;-79
2024/01/06 16:06:45;;;;;;;145.77;87.57;;;14.30;1.00;;;;;;4906942;29;20497;-76
2024/01/06 16:09:14;;;;;;;144.10;84.05;;;14.20;1.00;;;;;;4890585;29;20052;-78
2024/01/06 16:11:41;;;;;;;135.20;81.55;;;14.20;1.00;;;;;;4908684;29;20232;-78
2024/01/06 16:14:09;;;;;;;165.73;103.20;;;14.10;1.00;;;;;;4909960;29;20060;-78
2024/01/06 16:16:36;;;;;;;183.20;105.45;;;14.00;7.00;;;;;;4910018;29;20128;-77
2024/01/06 16:19:04;;;;;;;173.93;99.10;;;13.80;83.70;;;;;;4914543;29;20071;-78
2024/01/06 16:21:31;;;;;;;185.85;101.80;;;13.80;99.90;;;;;;4897649;29;20044;-77
2024/01/06 16:24:00;;;;;;;176.57;98.63;;;13.70;99.90;;;;;;4914259;29;20036;-77
2024/01/06 16:26:29;;;;;;;174.27;103.32;;;13.60;99.90;;;;;;4916104;29;20126;-78
2024/01/06 16:28:56;;;;;;;122.15;78.53;;;13.70;99.90;;;;;;4913608;29;20041;-80
2024/01/06 16:31:25;;;;;;;71.93;46.58;;;13.70;99.90;;;;;;4916670;29;20055;-77
2024/01/06 16:33:52;;;;;;;73.07;45.55;;;13.70;99.90;;;;;;4907661;29;20100;-79
2024/01/06 16:36:20;;;;;;;74.63;46.95;;;13.70;99.90;;;;;;4900404;29;20048;-88
2024/01/06 16:38:50;;;;;;;88.35;54.83;;;13.70;53.20;;;;;;4881645;29;20080;-86
2024/01/06 16:41:18;;;;;;;98.07;59.70;;;13.70;40.00;;;;;;4883575;29;20049;-85
2024/01/06 16:43:48;;;;;;;109.22;67.00;;;13.70;89.10;;;;;;4909953;29;20223;-86
2024/01/06 16:49:54;;;;;;;136.07;78.43;;;13.60;99.90;;;;;;4898734;29;20047;-87
2024/01/06 16:58:08;;;;;;;96.20;58.25;;;13.50;99.90;;;;;;4886576;29;20587;-89
2024/01/06 17:00:37;;;;;;;98.60;59.25;;;13.50;99.90;;;;;;4903626;29;20032;-88
2024/01/06 17:03:06;;;;;;;111.82;67.97;;;13.40;99.90;;;;;;4880308;29;20140;-85
2024/01/06 17:05:34;;;;;;;120.13;74.80;;;13.30;99.90;;;;;;4897796;29;20056;-85
2024/01/06 17:08:03;;;;;;;168.98;100.95;;;13.10;99.90;;;;;;4900614;29;20469;-87
2024/01/06 17:10:30;;;;;;;137.55;83.70;;;12.90;99.90;;;;;;4886081;29;20063;-89
2024/01/06 17:12:58;;;;;;;130.43;81.18;;;12.90;99.90;;;;;;4878927;29;20074;-81
2024/01/06 17:15:28;;;;;;;137.32;84.43;;;12.80;1.00;;;;;;4897595;29;20040;-81
2024/01/06 17:17:57;;;;;;;138.65;83.32;;;12.80;1.00;;;;;;4895275;29;20124;-80
2024/01/06 17:20:25;;;;;;;134.45;80.28;;;12.80;1.00;;;;;;4896161;29;20052;-82
2024/01/06 17:22:53;;;;;;;137.68;81.05;;;12.90;1.00;;;;;;4902475;29;20040;-80
2024/01/06 17:25:20;;;;;;;150.52;93.85;;;12.80;1.00;;;;;;4903112;29;20041;-80
2024/01/06 17:27:47;;;;;;;167.60;101.63;;;12.80;1.00;;;;;;4880452;29;20066;-80
2024/01/06 17:30:15;;;;;;;159.07;94.53;;;12.80;1.00;;;;;;4896032;29;20049;-79
2024/01/06 17:32:43;;;;;;;167.10;97.25;;;12.70;1.00;;;;;;4897261;29;20052;-81
2024/01/06 17:35:12;;;;;;;147.85;90.13;;;12.60;1.00;;;;;;4879221;29;20082;-80
2024/01/06 17:37:39;;;;;;;163.27;97.20;;;12.60;1.00;;;;;;4895734;29;20051;-81
2024/01/06 17:40:08;;;;;;;154.38;91.50;;;12.60;1.00;;;;;;4896310;29;20128;-80
2024/01/06 17:42:59;;;;;;;160.27;95.60;;;12.50;1.00;;;;;;4895701;29;20055;-88
2024/01/06 17:45:36;;;;;;;154.02;91.65;;;12.60;1.00;;;;;;4880858;29;20040;-82
2024/01/06 17:48:28;;;;;;;149.30;91.75;;;12.60;1.00;;;;;;4881433;29;20048;-83
2024/01/06 17:51:25;;;;;;;154.18;91.97;;;12.60;1.00;;;;;;4897850;29;20088;-86
2024/01/06 19:26:29;;;;;;;251.02;149.13;;;11.90;25.20;;;;;;5077166;23;20044;-84
2024/01/06 19:28:56;;;;;;;266.60;149.30;;;11.90;99.90;;;;;;4916478;29;20100;-85
2024/01/06 19:31:25;;;;;;;255.82;150.73;;;11.90;99.90;;;;;;4917622;29;20052;-84
2024/01/06 19:33:53;;;;;;;247.02;141.63;;;11.90;99.90;;;;;;4917085;29;20469;-83